Time;durP1;ratioP1;P1;durP2;ratioP2;P2;SDS_P1;SDS_P2;PMS_P1;PMS_P2;Temp;Humidity;BMP_temperature;BMP_pressure;BME280_temperature;BME280_humidity;BME280_pressure;Samples;Min_cycle;Max_cycle;Signal;HPM_P1;HPM_P2
2022/01/23 00:00:04;;;;;;;15.82;5.40;;;5.80;99.90;;;;;;4954146;28;20039;-74
2022/01/23 00:02:33;;;;;;;13.40;5.65;;;5.80;99.90;;;;;;4968657;28;20066;-73
2022/01/23 00:05:04;;;;;;;10.63;5.85;;;5.70;99.90;;;;;;4966932;28;20124;-73
2022/01/23 00:07:31;;;;;;;18.10;6.37;;;5.80;99.90;;;;;;4953764;28;20117;-73
2022/01/23 00:09:57;;;;;;;15.40;5.65;;;5.80;99.90;;;;;;4951436;28;20054;-74
2022/01/23 00:12:25;;;;;;;13.88;6.20;;;5.80;99.90;;;;;;4952594;28;20038;-74
2022/01/23 00:17:35;;;;;;;12.95;5.43;;;5.70;99.90;;;;;;4950602;28;20061;-73
2022/01/23 00:20:05;;;;;;;13.18;5.85;;;5.70;99.90;;;;;;4950426;28;20489;-73
2022/01/23 00:22:57;;;;;;;14.65;5.53;;;5.80;99.90;;;;;;4965117;28;20097;-72
2022/01/23 00:30:49;;;;;;;17.38;5.70;;;5.70;99.90;;;;;;4966593;28;20046;-73
2022/01/23 00:33:15;;;;;;;18.73;5.78;;;5.70;99.90;;;;;;4954380;28;20378;-73
2022/01/23 00:35:43;;;;;;;15.43;6.07;;;5.80;99.90;;;;;;4955473;28;20054;-73
2022/01/23 00:38:11;;;;;;;15.30;6.32;;;5.80;99.90;;;;;;4938430;28;20409;-73
2022/01/23 00:40:39;;;;;;;12.73;6.50;;;5.70;99.90;;;;;;4951733;28;20063;-73
2022/01/23 00:43:13;;;;;;;13.65;6.38;;;5.80;99.90;;;;;;4953232;28;20409;-73
2022/01/23 00:45:45;;;;;;;16.98;6.15;;;5.80;99.90;;;;;;4952459;28;20481;-72
2022/01/23 00:48:12;;;;;;;12.43;5.75;;;5.80;99.90;;;;;;4951367;28;20121;-73
2022/01/23 00:50:44;;;;;;;15.52;6.07;;;5.80;99.90;;;;;;4971050;28;20035;-72
2022/01/23 00:53:12;;;;;;;19.65;6.47;;;5.80;99.90;;;;;;4935503;28;20417;-73
2022/01/23 00:55:40;;;;;;;16.63;6.35;;;5.80;99.90;;;;;;4956852;28;20549;-73
2022/01/23 00:58:06;;;;;;;13.90;6.13;;;5.80;99.90;;;;;;4961298;28;20493;-73
2022/01/23 01:00:33;;;;;;;15.55;6.65;;;5.80;99.90;;;;;;4972878;28;20117;-73
2022/01/23 01:02:59;;;;;;;14.05;6.70;;;5.80;99.90;;;;;;4957223;28;20413;-72
2022/01/23 01:05:28;;;;;;;17.42;6.63;;;5.80;99.90;;;;;;4941814;28;20404;-72
2022/01/23 01:07:55;;;;;;;22.27;7.03;;;5.70;99.90;;;;;;4955158;28;20132;-73
2022/01/23 01:10:26;;;;;;;17.17;7.15;;;5.70;99.90;;;;;;4973059;28;20616;-72
2022/01/23 01:12:57;;;;;;;17.05;7.18;;;5.80;99.90;;;;;;4954555;28;20503;-73
2022/01/23 01:31:29;;;;;;;18.63;7.10;;;5.80;99.90;;;;;;4973141;28;20345;-73
2022/01/23 01:34:06;;;;;;;17.23;7.25;;;5.80;99.90;;;;;;4975392;28;20043;-72
2022/01/23 01:36:44;;;;;;;17.30;7.30;;;5.80;99.90;;;;;;4973701;28;20038;-73
2022/01/23 01:39:12;;;;;;;17.63;7.28;;;5.80;99.90;;;;;;4973539;28;20497;-73
2022/01/23 01:41:39;;;;;;;15.07;7.40;;;5.80;99.90;;;;;;4973856;28;20066;-72
2022/01/23 01:44:05;;;;;;;19.98;7.70;;;5.80;99.90;;;;;;4958771;28;20074;-73
2022/01/23 01:46:31;;;;;;;18.90;7.70;;;5.80;99.90;;;;;;4972961;28;20548;-73
2022/01/23 01:48:57;;;;;;;19.98;7.50;;;5.80;99.90;;;;;;4953951;28;20046;-72
2022/01/23 01:51:24;;;;;;;21.40;7.82;;;5.70;99.90;;;;;;4940623;28;20481;-72
2022/01/23 01:53:57;;;;;;;18.48;7.80;;;5.80;99.90;;;;;;4955540;28;20150;-72
2022/01/23 01:56:23;;;;;;;17.38;8.35;;;5.80;99.90;;;;;;4953912;28;20440;-72
2022/01/23 02:09:36;;;;;;;16.95;7.40;;;5.80;99.90;;;;;;4970185;28;20049;-71
2022/01/23 02:12:28;;;;;;;18.15;7.88;;;5.80;99.90;;;;;;4952548;28;20389;-73
2022/01/23 02:15:14;;;;;;;21.00;8.38;;;5.80;99.90;;;;;;4954222;28;20398;-72
2022/01/23 02:55:44;;;;;;;28.33;9.70;;;5.70;99.90;;;;;;4951672;28;20050;-73
2022/01/23 02:58:13;;;;;;;21.77;9.55;;;5.70;99.90;;;;;;4936075;28;20042;-73
2022/01/23 03:00:59;;;;;;;16.73;9.40;;;5.80;99.90;;;;;;4953493;28;20042;-73
2022/01/23 03:03:25;;;;;;;22.17;9.48;;;5.80;99.90;;;;;;4958139;28;20058;-71
2022/01/23 03:06:18;;;;;;;25.65;10.50;;;5.70;99.90;;;;;;4955051;28;20046;-72
2022/01/23 03:34:55;;;;;;;26.33;9.85;;;5.70;99.90;;;;;;4955223;28;20042;-73
2022/01/23 03:37:21;;;;;;;19.58;10.00;;;5.70;99.90;;;;;;4933814;28;20094;-72
2022/01/23 03:39:47;;;;;;;23.08;9.32;;;5.60;99.90;;;;;;4953123;28;20047;-72
2022/01/23 03:42:13;;;;;;;21.33;9.38;;;5.70;99.90;;;;;;4952805;28;20055;-72
2022/01/23 03:44:46;;;;;;;21.25;10.38;;;5.70;99.90;;;;;;4963184;28;20049;-73
2022/01/23 03:47:20;;;;;;;22.75;9.38;;;5.70;99.90;;;;;;4953485;28;20035;-73
2022/01/23 03:49:48;;;;;;;20.90;9.80;;;5.60;99.90;;;;;;4954783;28;20038;-72
2022/01/23 03:52:15;;;;;;;24.70;9.95;;;5.60;99.90;;;;;;4971315;28;20048;-72
2022/01/23 03:54:41;;;;;;;27.10;10.07;;;5.70;99.90;;;;;;4954490;28;20039;-72
2022/01/23 03:57:08;;;;;;;19.63;8.93;;;5.70;99.90;;;;;;4951523;28;20038;-72
2022/01/23 03:59:35;;;;;;;18.77;9.07;;;5.70;99.90;;;;;;4952401;28;20051;-72
2022/01/23 04:02:00;;;;;;;23.92;10.02;;;5.60;99.90;;;;;;4951748;28;20047;-72
2022/01/23 04:04:37;;;;;;;28.88;10.50;;;5.70;99.90;;;;;;4954399;28;20049;-73
2022/01/23 04:07:05;;;;;;;20.88;10.05;;;5.70;99.90;;;;;;4970262;28;20043;-72
2022/01/23 04:09:31;;;;;;;19.63;9.93;;;5.60;99.90;;;;;;4952257;28;20050;-73
2022/01/23 04:11:58;;;;;;;23.95;9.93;;;5.60;99.90;;;;;;4959764;28;20039;-73
2022/01/23 04:14:25;;;;;;;18.10;9.15;;;5.60;99.90;;;;;;4970773;28;20037;-73
2022/01/23 04:17:39;;;;;;;22.40;10.10;;;5.60;99.90;;;;;;4953917;28;20050;-73
2022/01/23 04:48:49;;;;;;;17.67;9.82;;;5.60;99.90;;;;;;4964381;28;20050;-73
2022/01/23 05:01:11;;;;;;;23.23;10.07;;;5.60;99.90;;;;;;4946847;28;20078;-73
2022/01/23 05:06:24;;;;;;;20.05;9.93;;;5.60;99.90;;;;;;4960307;28;20049;-73
2022/01/23 05:08:51;;;;;;;25.45;10.00;;;5.60;99.90;;;;;;4961331;28;20074;-73
2022/01/23 05:11:17;;;;;;;20.08;10.25;;;5.60;99.90;;;;;;4968588;28;20098;-73
2022/01/23 05:13:42;;;;;;;28.05;10.77;;;5.60;99.90;;;;;;4959936;28;20043;-73
2022/01/23 05:16:10;;;;;;;27.55;10.35;;;5.60;99.90;;;;;;4965432;28;20047;-73
2022/01/23 05:18:37;;;;;;;24.23;9.65;;;5.60;99.90;;;;;;4978619;28;20459;-73
2022/01/23 05:21:44;;;;;;;17.50;9.32;;;5.60;99.90;;;;;;4967523;28;20041;-73
2022/01/23 05:24:04;;;;;;;19.45;9.57;;;5.60;99.90;;;;;;4963331;28;20046;-72
2022/01/23 05:26:31;;;;;;;16.65;9.27;;;5.60;99.90;;;;;;4961858;28;20050;-73
2022/01/23 05:28:56;;;;;;;24.73;9.80;;;5.60;99.90;;;;;;4966746;28;20051;-72
2022/01/23 05:31:22;;;;;;;18.55;9.05;;;5.60;99.90;;;;;;4966309;28;20041;-72
2022/01/23 05:33:48;;;;;;;22.00;9.70;;;5.60;99.90;;;;;;4968674;28;20054;-72
2022/01/23 05:36:13;;;;;;;23.83;9.02;;;5.60;99.90;;;;;;4963819;28;20049;-73
2022/01/23 05:38:39;;;;;;;19.92;9.55;;;5.60;99.90;;;;;;4963192;28;20042;-73
2022/01/23 05:41:05;;;;;;;15.70;8.50;;;5.60;99.90;;;;;;4964210;28;20129;-72
2022/01/23 05:43:30;;;;;;;20.27;9.20;;;5.60;99.90;;;;;;4963854;28;20050;-72
2022/01/23 05:45:56;;;;;;;14.52;8.65;;;5.50;99.90;;;;;;4962930;28;20066;-73
2022/01/23 05:48:22;;;;;;;17.88;9.60;;;5.60;99.90;;;;;;4964959;28;20121;-73
2022/01/23 05:50:48;;;;;;;19.25;10.02;;;5.60;99.90;;;;;;4968578;28;20043;-73
2022/01/23 05:53:14;;;;;;;22.83;10.57;;;5.50;99.90;;;;;;4962412;28;20038;-73
2022/01/23 05:55:40;;;;;;;16.08;9.50;;;5.60;99.90;;;;;;4967842;28;20061;-73
2022/01/23 05:58:06;;;;;;;19.27;9.15;;;5.60;99.90;;;;;;4962137;28;20049;-72
2022/01/23 06:00:31;;;;;;;21.15;9.95;;;5.60;99.90;;;;;;4961418;28;20085;-73
2022/01/23 06:02:57;;;;;;;23.52;9.60;;;5.60;99.90;;;;;;4966959;28;20078;-73
2022/01/23 06:05:22;;;;;;;24.77;10.13;;;5.60;99.90;;;;;;4959866;28;20056;-73
2022/01/23 06:07:50;;;;;;;21.20;9.45;;;5.60;99.90;;;;;;4972135;28;20049;-72
2022/01/23 06:10:23;;;;;;;21.08;9.85;;;5.60;99.90;;;;;;4952680;28;20046;-72
2022/01/23 06:12:49;;;;;;;18.30;8.75;;;5.60;99.90;;;;;;4953141;28;20046;-73
2022/01/23 06:15:16;;;;;;;20.75;9.65;;;5.60;99.90;;;;;;4967079;28;20046;-73
2022/01/23 06:17:42;;;;;;;20.13;9.55;;;5.60;99.90;;;;;;4953427;28;20393;-72
2022/01/23 06:20:10;;;;;;;17.65;9.43;;;5.60;99.90;;;;;;4952148;28;20085;-72
2022/01/23 06:22:36;;;;;;;22.27;9.77;;;5.60;99.90;;;;;;4953036;28;20038;-72
2022/01/23 06:25:05;;;;;;;25.40;10.35;;;5.60;99.90;;;;;;4950847;28;20047;-73
2022/01/23 06:27:30;;;;;;;19.48;9.05;;;5.60;99.90;;;;;;4952854;28;20093;-73
2022/01/23 06:29:56;;;;;;;22.90;9.40;;;5.60;99.90;;;;;;4964874;28;20043;-73
2022/01/23 06:32:22;;;;;;;23.65;9.55;;;5.60;99.90;;;;;;4954135;28;20054;-73
2022/01/23 06:34:53;;;;;;;26.30;9.80;;;5.60;99.90;;;;;;4953404;28;20117;-73
2022/01/23 06:37:19;;;;;;;25.90;10.82;;;5.60;99.90;;;;;;4955614;28;20126;-73
2022/01/23 06:39:45;;;;;;;20.30;10.07;;;5.60;99.90;;;;;;4962486;28;20050;-73
2022/01/23 06:42:11;;;;;;;22.90;10.73;;;5.50;99.90;;;;;;4961407;28;20042;-73
2022/01/23 06:44:38;;;;;;;29.83;10.40;;;5.50;99.90;;;;;;4949194;28;20039;-72
2022/01/23 06:47:04;;;;;;;26.42;11.10;;;5.50;99.90;;;;;;4963350;28;20128;-73
2022/01/23 06:49:31;;;;;;;26.02;10.60;;;5.50;99.90;;;;;;4939288;28;20049;-73
2022/01/23 06:51:57;;;;;;;24.40;11.32;;;5.60;99.90;;;;;;4951931;28;20042;-73
2022/01/23 06:54:22;;;;;;;20.48;10.10;;;5.50;99.90;;;;;;4952226;28;20086;-72
2022/01/23 06:56:48;;;;;;;28.45;10.90;;;5.50;99.90;;;;;;4955535;28;20105;-71
2022/01/23 06:59:14;;;;;;;24.73;11.32;;;5.50;99.90;;;;;;4952518;28;20420;-72
2022/01/23 07:01:40;;;;;;;21.17;10.93;;;5.50;99.90;;;;;;4952720;28;20043;-72
2022/01/23 07:04:05;;;;;;;26.55;11.50;;;5.50;99.90;;;;;;4951672;28;20138;-72
2022/01/23 07:06:31;;;;;;;26.23;10.93;;;5.50;99.90;;;;;;4952233;28;20042;-72
2022/01/23 07:08:57;;;;;;;23.75;11.35;;;5.50;99.90;;;;;;4949928;28;20092;-72
2022/01/23 07:11:23;;;;;;;19.95;10.32;;;5.50;99.90;;;;;;4951817;28;20521;-72
2022/01/23 07:13:49;;;;;;;24.05;10.98;;;5.50;99.90;;;;;;4953403;28;20393;-72
2022/01/23 07:16:14;;;;;;;22.98;11.20;;;5.50;99.90;;;;;;4954669;28;20794;-72
2022/01/23 07:18:40;;;;;;;23.73;10.30;;;5.60;99.90;;;;;;4953798;28;20035;-72
2022/01/23 07:21:05;;;;;;;23.70;10.90;;;5.50;99.90;;;;;;4953677;28;20401;-73
2022/01/23 07:23:31;;;;;;;21.88;10.25;;;5.50;99.90;;;;;;4969363;28;20553;-72
2022/01/23 07:25:58;;;;;;;26.05;10.63;;;5.50;99.90;;;;;;4971041;28;20381;-73
2022/01/23 07:28:35;;;;;;;19.77;10.00;;;5.50;99.90;;;;;;4954943;28;20074;-72
2022/01/23 07:31:04;;;;;;;25.13;11.80;;;5.50;99.90;;;;;;4952922;28;20513;-72
2022/01/23 07:33:30;;;;;;;29.73;12.00;;;5.50;99.90;;;;;;4952078;28;20047;-73
2022/01/23 07:35:55;;;;;;;29.42;12.13;;;5.60;99.90;;;;;;4948695;28;20031;-73
2022/01/23 07:38:21;;;;;;;26.27;12.63;;;5.60;99.90;;;;;;4953288;28;20054;-74
2022/01/23 07:40:50;;;;;;;27.73;12.18;;;5.50;99.90;;;;;;4951831;28;21085;-72
2022/01/23 07:43:16;;;;;;;31.77;12.80;;;5.60;99.90;;;;;;4951248;28;20430;-72
2022/01/23 07:45:43;;;;;;;29.27;12.90;;;5.50;99.90;;;;;;4944792;28;20076;-72
2022/01/23 07:48:09;;;;;;;33.60;13.13;;;5.60;99.90;;;;;;4914203;28;20062;-73
2022/01/23 07:50:35;;;;;;;27.45;12.52;;;5.60;99.90;;;;;;4946288;28;20141;-73
2022/01/23 07:53:01;;;;;;;32.63;13.27;;;5.60;99.90;;;;;;4945486;28;20042;-74
2022/01/23 07:55:27;;;;;;;35.90;13.50;;;5.60;99.90;;;;;;4928006;28;20109;-73
2022/01/23 07:57:53;;;;;;;30.90;12.30;;;5.50;99.90;;;;;;4965482;28;20036;-73
2022/01/23 08:00:20;;;;;;;31.52;13.02;;;5.60;99.90;;;;;;4952916;28;20378;-73
2022/01/23 08:02:46;;;;;;;29.92;13.43;;;5.50;99.90;;;;;;4954627;28;20050;-73
2022/01/23 08:05:11;;;;;;;29.05;13.25;;;5.50;99.90;;;;;;4953728;28;20074;-74
2022/01/23 08:07:37;;;;;;;36.38;15.00;;;5.60;99.90;;;;;;4942102;28;20631;-73
2022/01/23 08:10:06;;;;;;;36.85;13.90;;;5.60;99.90;;;;;;4954560;28;20047;-73
2022/01/23 08:12:32;;;;;;;38.10;14.50;;;5.60;99.90;;;;;;4972488;28;20437;-73
2022/01/23 08:14:59;;;;;;;41.70;15.63;;;5.60;99.90;;;;;;4954658;28;20432;-73
2022/01/23 08:17:25;;;;;;;36.88;15.65;;;5.60;99.90;;;;;;4956732;28;20085;-74
2022/01/23 08:19:53;;;;;;;40.50;16.52;;;5.70;99.90;;;;;;4973522;28;20374;-74
2022/01/23 08:22:20;;;;;;;43.03;15.40;;;5.60;99.90;;;;;;4971023;28;20725;-73
2022/01/23 08:24:45;;;;;;;40.47;15.55;;;5.70;99.90;;;;;;4974605;28;20371;-73
2022/01/23 08:27:11;;;;;;;40.72;16.73;;;5.70;99.90;;;;;;4955456;28;20054;-74
2022/01/23 08:29:36;;;;;;;47.15;16.75;;;5.70;99.90;;;;;;4969938;28;20058;-73
2022/01/23 08:32:02;;;;;;;45.17;16.70;;;5.70;99.90;;;;;;4971075;28;20177;-73
2022/01/23 08:34:28;;;;;;;44.97;17.13;;;5.70;99.90;;;;;;4958240;28;20050;-73
2022/01/23 08:36:56;;;;;;;45.92;17.60;;;5.70;99.90;;;;;;4972186;28;20122;-73
2022/01/23 08:39:24;;;;;;;50.10;18.10;;;5.70;99.90;;;;;;4956096;28;20482;-73
2022/01/23 08:41:53;;;;;;;45.90;18.05;;;5.70;99.90;;;;;;4954555;28;20066;-73
2022/01/23 08:44:22;;;;;;;46.95;17.73;;;5.80;99.90;;;;;;4959830;28;20093;-73
2022/01/23 08:46:48;;;;;;;49.35;18.90;;;5.80;99.90;;;;;;4954215;28;20165;-73
2022/01/23 08:49:17;;;;;;;56.03;19.55;;;5.80;99.90;;;;;;4955598;28;20126;-73
2022/01/23 08:51:44;;;;;;;53.55;20.30;;;5.80;99.90;;;;;;4973505;28;20532;-73
2022/01/23 08:54:10;;;;;;;52.67;20.05;;;5.80;99.90;;;;;;4952892;28;20043;-73
2022/01/23 08:56:36;;;;;;;57.15;21.00;;;5.80;99.90;;;;;;4954957;28;20081;-73
2022/01/23 08:59:02;;;;;;;57.85;20.55;;;5.80;99.90;;;;;;4970902;28;20038;-73
2022/01/23 09:01:28;;;;;;;50.40;19.35;;;5.90;99.90;;;;;;4965893;28;20485;-73
2022/01/23 09:03:54;;;;;;;47.40;19.05;;;5.90;99.90;;;;;;4955398;28;20046;-73
2022/01/23 09:06:20;;;;;;;49.83;19.70;;;5.90;99.90;;;;;;4950397;28;20125;-73
2022/01/23 09:08:46;;;;;;;50.33;19.35;;;5.90;99.90;;;;;;4953855;28;20065;-73
2022/01/23 09:14:10;;;;;;;52.95;20.48;;;5.90;99.90;;;;;;4968773;28;20568;-73
2022/01/23 09:16:43;;;;;;;45.92;20.45;;;5.90;99.90;;;;;;4953811;28;20405;-73
2022/01/23 09:19:10;;;;;;;43.92;18.95;;;5.90;99.90;;;;;;4955213;28;20042;-74
2022/01/23 09:21:37;;;;;;;47.08;20.20;;;5.90;99.90;;;;;;4956985;28;20429;-73
2022/01/23 09:24:04;;;;;;;41.95;17.90;;;5.90;99.90;;;;;;4939001;28;20061;-73
2022/01/23 09:26:30;;;;;;;41.60;18.50;;;5.90;99.90;;;;;;4972667;28;20043;-74
2022/01/23 09:28:59;;;;;;;40.97;17.90;;;6.00;99.90;;;;;;4975963;28;20409;-73
2022/01/23 09:31:45;;;;;;;42.03;18.30;;;6.00;99.90;;;;;;4956040;28;20544;-73
2022/01/23 09:34:11;;;;;;;44.38;19.13;;;6.00;99.90;;;;;;4957206;28;20070;-73
2022/01/23 09:36:37;;;;;;;41.83;18.08;;;6.00;99.90;;;;;;4941409;28;20401;-74
2022/01/23 09:39:04;;;;;;;42.35;17.95;;;6.10;99.90;;;;;;4956800;28;20046;-74
2022/01/23 09:41:31;;;;;;;39.10;18.60;;;6.10;99.90;;;;;;4955234;28;20035;-73
2022/01/23 09:44:00;;;;;;;39.80;18.90;;;6.10;99.90;;;;;;4970185;28;20394;-74
2022/01/23 09:46:25;;;;;;;38.40;17.98;;;6.20;99.90;;;;;;4955380;28;20418;-73
2022/01/23 09:48:52;;;;;;;36.17;17.00;;;6.20;99.90;;;;;;4971940;28;20043;-73
2022/01/23 09:51:21;;;;;;;30.05;15.73;;;6.20;99.90;;;;;;4969428;28;20030;-73
2022/01/23 09:53:47;;;;;;;32.38;16.20;;;6.20;99.90;;;;;;4971858;28;20536;-73
2022/01/23 09:56:15;;;;;;;28.13;14.70;;;6.30;99.90;;;;;;4955663;28;20485;-74
2022/01/23 09:58:41;;;;;;;26.10;13.65;;;6.30;99.90;;;;;;4956278;28;20133;-74
2022/01/23 10:01:07;;;;;;;28.42;14.48;;;6.30;99.90;;;;;;4952138;28;20137;-74
2022/01/23 10:03:32;;;;;;;27.50;14.05;;;6.40;99.90;;;;;;4958193;28;20485;-74
2022/01/23 10:05:58;;;;;;;21.92;12.57;;;6.40;99.90;;;;;;4956733;28;20053;-74
2022/01/23 10:08:29;;;;;;;23.15;12.48;;;6.50;99.90;;;;;;4972094;28;20069;-74
2022/01/23 10:10:56;;;;;;;22.42;11.13;;;6.50;99.90;;;;;;4953043;28;20719;-74
2022/01/23 10:13:24;;;;;;;19.40;10.77;;;6.50;99.90;;;;;;4955165;28;20610;-74
2022/01/23 10:15:50;;;;;;;20.10;9.95;;;6.50;99.90;;;;;;4957302;28;20409;-74
2022/01/23 10:18:17;;;;;;;20.65;10.93;;;6.50;99.90;;;;;;4954724;28;20039;-74
2022/01/23 10:20:42;;;;;;;21.15;11.77;;;6.50;99.90;;;;;;4954773;28;20050;-74
2022/01/23 10:23:09;;;;;;;23.83;12.25;;;6.60;99.90;;;;;;4956109;28;20054;-74
2022/01/23 10:25:41;;;;;;;18.17;11.27;;;6.60;99.90;;;;;;4956019;28;20062;-74
2022/01/23 10:28:10;;;;;;;19.27;10.82;;;6.60;99.90;;;;;;4955090;28;20096;-74
2022/01/23 10:30:44;;;;;;;19.50;11.38;;;6.60;99.90;;;;;;4970882;28;21156;-74
2022/01/23 10:33:33;;;;;;;18.52;10.77;;;6.60;99.90;;;;;;4956418;28;20046;-74
2022/01/23 10:36:01;;;;;;;16.40;10.25;;;6.70;99.90;;;;;;4954672;28;20100;-74
2022/01/23 10:38:31;;;;;;;15.02;9.65;;;6.70;99.90;;;;;;4945208;28;20573;-74
2022/01/23 10:41:12;;;;;;;13.40;8.48;;;6.70;99.90;;;;;;4953550;28;20050;-74
2022/01/23 10:50:03;;;;;;;8.65;6.32;;;6.70;99.90;;;;;;4893166;29;20086;-74
2022/01/23 10:52:35;;;;;;;9.77;6.35;;;6.70;99.90;;;;;;4894262;29;20079;-74
2022/01/23 10:55:24;;;;;;;8.20;5.20;;;6.80;99.90;;;;;;4936199;28;20196;-74
2022/01/23 10:57:54;;;;;;;10.27;5.10;;;6.80;99.90;;;;;;4946470;28;20090;-73
2022/01/23 11:00:26;;;;;;;5.70;4.70;;;6.80;99.90;;;;;;4956870;28;20058;-73
2022/01/23 11:02:54;;;;;;;7.70;4.55;;;6.80;99.90;;;;;;4941914;28;20042;-74
2022/01/23 11:05:21;;;;;;;7.88;4.45;;;6.80;99.90;;;;;;4955056;28;21810;-73
2022/01/23 11:07:48;;;;;;;6.68;4.30;;;6.80;99.90;;;;;;4944557;28;20071;-73
2022/01/23 11:10:15;;;;;;;5.07;3.53;;;6.90;99.90;;;;;;4960291;28;20036;-73
2022/01/23 11:17:21;;;;;;;5.95;3.00;;;6.90;99.90;;;;;;4949142;28;20137;-73
2022/01/23 11:18:34;;;;;;;5.43;3.70;;;6.90;99.90;;;;;;4943962;28;20050;-72
2022/01/23 11:21:13;;;;;;;6.00;4.65;;;7.00;99.90;;;;;;4940942;28;20038;-73
2022/01/23 11:23:41;;;;;;;5.22;3.28;;;7.10;99.90;;;;;;4930947;28;20065;-73
2022/01/23 11:26:12;;;;;;;5.65;3.10;;;7.10;99.90;;;;;;4945980;28;20478;-73
2022/01/23 11:28:43;;;;;;;2.95;2.10;;;7.10;99.90;;;;;;4946483;28;20086;-73
2022/01/23 11:31:11;;;;;;;2.83;2.20;;;7.10;99.90;;;;;;4959150;28;20059;-74
2022/01/23 11:33:37;;;;;;;2.10;1.42;;;7.20;99.90;;;;;;4941398;28;20085;-73
2022/01/23 11:36:04;;;;;;;1.98;1.30;;;7.20;99.90;;;;;;4940827;28;21645;-72
2022/01/23 11:38:30;;;;;;;1.77;1.67;;;7.10;99.90;;;;;;4939787;28;20037;-73
2022/01/23 11:54:43;;;;;;;1.98;1.45;;;7.20;99.90;;;;;;4957059;28;20047;-73
2022/01/23 11:57:37;;;;;;;1.70;1.60;;;7.10;99.90;;;;;;4959216;28;20066;-73
2022/01/23 12:00:06;;;;;;;1.95;1.70;;;7.10;99.90;;;;;;4940205;28;20046;-72
2022/01/23 12:02:41;;;;;;;2.08;1.60;;;7.10;99.90;;;;;;4944231;28;20045;-74
2022/01/23 12:05:10;;;;;;;3.28;1.77;;;7.10;99.90;;;;;;4946345;28;20090;-72
2022/01/23 12:07:37;;;;;;;2.65;1.85;;;7.00;99.90;;;;;;4961507;28;20043;-73
2022/01/23 12:10:08;;;;;;;2.17;1.88;;;7.00;99.90;;;;;;4946951;28;20043;-73
2022/01/23 12:12:40;;;;;;;3.10;2.10;;;7.00;99.90;;;;;;4945636;28;20039;-72
2022/01/23 12:18:25;;;;;;;3.90;2.50;;;7.00;99.90;;;;;;4949651;28;20410;-72
2022/01/23 12:20:52;;;;;;;2.92;2.60;;;7.00;99.90;;;;;;4931634;28;20050;-73
2022/01/23 12:23:19;;;;;;;3.40;2.80;;;7.00;99.90;;;;;;4934795;28;20049;-73
2022/01/23 12:25:53;;;;;;;3.58;3.00;;;7.00;99.90;;;;;;4968127;28;20133;-73
2022/01/23 12:28:28;;;;;;;3.03;2.60;;;7.00;99.90;;;;;;4951539;28;20066;-73
2022/01/23 12:30:56;;;;;;;3.72;2.60;;;7.00;99.90;;;;;;4952698;28;20047;-73
2022/01/23 12:33:29;;;;;;;4.28;2.40;;;7.00;99.90;;;;;;4951937;28;20054;-72
2022/01/23 12:36:05;;;;;;;3.17;2.42;;;7.10;99.90;;;;;;4953962;28;20134;-73
2022/01/23 12:38:41;;;;;;;2.40;2.10;;;7.10;99.90;;;;;;4955550;28;20035;-73
2022/01/23 12:41:25;;;;;;;2.80;2.20;;;7.00;99.90;;;;;;4936503;28;20134;-72
2022/01/23 12:43:55;;;;;;;2.63;2.00;;;7.00;99.90;;;;;;4952432;28;20046;-73
2022/01/23 12:46:34;;;;;;;2.53;2.20;;;7.00;99.90;;;;;;4955813;28;20041;-73
2022/01/23 12:49:22;;;;;;;2.00;1.80;;;7.00;99.90;;;;;;4955397;28;20173;-73
2022/01/23 12:51:50;;;;;;;1.90;1.70;;;7.00;99.90;;;;;;4955900;28;20035;-73
2022/01/23 12:54:28;;;;;;;1.40;1.30;;;7.00;99.90;;;;;;4955682;28;20096;-73
2022/01/23 12:56:54;;;;;;;1.88;1.60;;;7.00;99.90;;;;;;4973999;28;20062;-73
2022/01/23 12:59:33;;;;;;;2.97;1.60;;;7.10;99.90;;;;;;4969820;28;20051;-73
2022/01/23 13:02:06;;;;;;;1.50;1.38;;;7.10;99.90;;;;;;4956236;28;20046;-74
2022/01/23 13:04:41;;;;;;;2.00;1.40;;;7.10;99.90;;;;;;4957133;28;20038;-73
2022/01/23 13:07:16;;;;;;;2.67;1.88;;;7.10;99.90;;;;;;4968326;28;20035;-73
2022/01/23 13:18:12;;;;;;;2.50;1.38;;;7.10;99.90;;;;;;4952486;28;20042;-73
2022/01/23 13:26:28;;;;;;;1.30;1.20;;;7.10;99.90;;;;;;4970990;28;20046;-72
2022/01/23 13:32:06;;;;;;;1.50;1.40;;;7.10;99.90;;;;;;4969808;28;20042;-73
2022/01/23 13:35:04;;;;;;;2.00;1.50;;;7.00;99.90;;;;;;4934733;28;20133;-72
2022/01/23 13:37:35;;;;;;;1.63;1.52;;;7.00;99.90;;;;;;4974774;28;20039;-72
2022/01/23 13:40:08;;;;;;;2.45;1.48;;;7.00;99.90;;;;;;4968284;28;20038;-73
2022/01/23 13:59:48;;;;;;;2.08;1.02;;;7.00;99.90;;;;;;4952264;28;20049;-73
2022/01/23 14:02:53;;;;;;;2.47;1.23;;;7.10;99.90;;;;;;4957146;28;20042;-72
2022/01/23 14:05:26;;;;;;;1.77;1.02;;;7.10;99.90;;;;;;4940936;28;20050;-72
2022/01/23 14:07:58;;;;;;;2.35;1.00;;;7.10;99.90;;;;;;4952548;28;20043;-72
2022/01/23 14:10:33;;;;;;;1.58;1.30;;;7.10;99.90;;;;;;4948225;28;20055;-73
2022/01/23 14:13:19;;;;;;;1.50;0.95;;;7.10;99.90;;;;;;4952033;28;20057;-72
2022/01/23 14:15:49;;;;;;;1.17;1.08;;;7.10;99.90;;;;;;4947014;28;20050;-72
2022/01/23 14:18:22;;;;;;;0.95;0.80;;;7.10;99.90;;;;;;4955235;28;20043;-73
2022/01/23 14:21:09;;;;;;;4.10;0.90;;;7.10;99.90;;;;;;4947722;28;20039;-73
2022/01/23 14:23:36;;;;;;;1.23;1.13;;;7.10;99.90;;;;;;4954026;28;20038;-72
2022/01/23 14:26:22;;;;;;;3.38;1.40;;;7.10;99.90;;;;;;4951557;28;20081;-73
2022/01/23 14:28:51;;;;;;;2.63;1.48;;;7.10;99.90;;;;;;4952867;28;20041;-73
2022/01/23 14:31:24;;;;;;;2.58;1.58;;;7.10;99.90;;;;;;4968368;28;20039;-73
2022/01/23 14:33:56;;;;;;;3.17;1.48;;;7.00;99.90;;;;;;4968319;28;20089;-73
2022/01/23 14:36:24;;;;;;;;;;;7.10;99.90;;;;;;4952162;28;20035;-73
2022/01/23 14:39:10;;;;;;;1.60;1.25;;;7.10;99.90;;;;;;4971941;28;19918;-73
2022/01/23 14:41:39;;;;;;;1.60;1.30;;;7.10;99.90;;;;;;4949978;28;20064;-73
2022/01/23 14:44:22;;;;;;;2.17;1.50;;;7.00;99.90;;;;;;4957973;28;20496;-73
2022/01/23 14:46:51;;;;;;;2.63;1.52;;;7.10;99.90;;;;;;4951543;28;20043;-72
2022/01/23 14:49:23;;;;;;;1.85;1.50;;;7.00;99.90;;;;;;4964679;28;20051;-74
2022/01/23 14:51:50;;;;;;;2.17;1.73;;;7.00;99.90;;;;;;4949771;28;20039;-73
2022/01/23 14:54:20;;;;;;;2.20;1.65;;;7.00;99.90;;;;;;4947207;28;20047;-73
2022/01/23 14:56:46;;;;;;;2.95;1.70;;;7.00;99.90;;;;;;4934495;28;20045;-73
2022/01/23 14:59:14;;;;;;;2.20;1.73;;;6.90;99.90;;;;;;4966643;28;20043;-73
2022/01/23 15:01:41;;;;;;;3.33;1.80;;;7.00;99.90;;;;;;4948482;28;20066;-73
2022/01/23 15:04:10;;;;;;;2.90;1.90;;;6.90;99.90;;;;;;4969628;28;20038;-74
2022/01/23 15:06:41;;;;;;;2.63;1.90;;;6.90;99.90;;;;;;4954211;28;20707;-74
2022/01/23 15:09:11;;;;;;;2.92;1.90;;;6.90;99.90;;;;;;4952422;28;20066;-74
2022/01/23 15:11:38;;;;;;;2.63;2.00;;;6.90;99.90;;;;;;4936723;28;20126;-72
2022/01/23 15:14:05;;;;;;;4.13;2.47;;;6.90;99.90;;;;;;4974578;28;20038;-72
2022/01/23 15:16:31;;;;;;;2.75;2.17;;;6.80;99.90;;;;;;4942537;28;20154;-72
2022/01/23 15:18:57;;;;;;;5.03;2.70;;;6.90;99.90;;;;;;4972404;28;20117;-72
2022/01/23 15:21:23;;;;;;;3.40;2.63;;;6.80;99.90;;;;;;4955537;28;20489;-72
2022/01/23 15:23:55;;;;;;;4.03;2.97;;;6.80;99.90;;;;;;4956301;28;20038;-72
2022/01/23 15:26:21;;;;;;;2.67;2.10;;;6.80;99.90;;;;;;4955372;28;20039;-72
2022/01/23 15:28:47;;;;;;;2.65;2.45;;;6.80;99.90;;;;;;4972746;28;20039;-73
2022/01/23 15:31:13;;;;;;;3.97;2.72;;;6.80;99.90;;;;;;4972338;28;20050;-73
2022/01/23 15:33:38;;;;;;;3.75;2.78;;;6.80;99.90;;;;;;4966552;28;20038;-72
2022/01/23 15:36:04;;;;;;;3.20;2.80;;;6.70;99.90;;;;;;4954560;28;20945;-73
2022/01/23 15:38:30;;;;;;;5.63;3.22;;;6.70;99.90;;;;;;4949812;28;20042;-72
2022/01/23 15:40:56;;;;;;;5.03;3.20;;;6.70;99.90;;;;;;4938397;28;20042;-72
2022/01/23 15:43:22;;;;;;;5.57;3.20;;;6.70;99.90;;;;;;4936960;28;20043;-72
2022/01/23 15:45:49;;;;;;;4.22;3.28;;;6.60;99.90;;;;;;4950530;28;20050;-72
2022/01/23 15:48:15;;;;;;;4.03;3.17;;;6.60;99.90;;;;;;4953810;28;20061;-73
2022/01/23 15:50:42;;;;;;;4.38;3.13;;;6.60;99.90;;;;;;4937678;28;20038;-74
2022/01/23 15:53:08;;;;;;;5.18;3.50;;;6.60;99.90;;;;;;4952076;28;20133;-74
2022/01/23 15:55:34;;;;;;;6.30;3.65;;;6.60;99.90;;;;;;4950478;28;20117;-73
2022/01/23 15:57:59;;;;;;;5.03;3.35;;;6.60;99.90;;;;;;4938883;28;20441;-73
2022/01/23 16:00:25;;;;;;;4.65;3.70;;;6.60;99.90;;;;;;4954368;28;20081;-73
2022/01/23 16:02:51;;;;;;;4.60;3.60;;;6.50;99.90;;;;;;4951153;28;20085;-73
2022/01/23 16:05:18;;;;;;;5.00;3.35;;;6.60;99.90;;;;;;4958816;28;20095;-73
2022/01/23 16:07:44;;;;;;;6.18;3.42;;;6.50;99.90;;;;;;4950897;29;20054;-73
2022/01/23 16:10:11;;;;;;;5.53;3.25;;;6.50;99.90;;;;;;4969056;28;20039;-73
2022/01/23 16:12:38;;;;;;;5.15;3.15;;;6.50;99.90;;;;;;4962691;28;20043;-73
2022/01/23 16:15:08;;;;;;;5.30;3.45;;;6.50;99.90;;;;;;4970373;28;20058;-73
2022/01/23 16:17:34;;;;;;;3.90;3.30;;;6.40;99.90;;;;;;4967411;28;20115;-72
2022/01/23 16:20:02;;;;;;;5.13;3.15;;;6.40;99.90;;;;;;4948181;28;20062;-73
2022/01/23 16:22:28;;;;;;;4.80;3.47;;;6.50;99.90;;;;;;4944784;28;20074;-73